Time;durP1;ratioP1;P1;durP2;ratioP2;P2;SDS_P1;SDS_P2;PMS_P1;PMS_P2;Temp;Humidity;BMP_temperature;BMP_pressure;BME280_temperature;BME280_humidity;BME280_pressure;Samples;Min_cycle;Max_cycle;Signal;HPM_P1;HPM_P2
2021/10/22 00:00:23;;;;;;;109.88;68.30;;;333.30;2329.60;;;;;;5095574;28;20041;-75
2021/10/22 00:02:49;;;;;;;88.43;61.65;;;333.30;2329.60;;;;;;5096987;28;20024;-77
2021/10/22 00:05:15;;;;;;;83.53;60.53;;;333.20;2329.60;;;;;;5094957;28;20028;-76
2021/10/22 00:07:41;;;;;;;67.38;50.75;;;333.30;2329.60;;;;;;5096168;28;20115;-75
2021/10/22 00:10:07;;;;;;;57.92;43.10;;;333.30;2329.60;;;;;;5094508;28;20073;-76
2021/10/22 00:12:34;;;;;;;58.75;41.10;;;358.40;2329.60;;;;;;5094561;28;20074;-76
2021/10/22 00:14:59;;;;;;;56.80;40.13;;;333.30;2329.60;;;;;;5094685;28;20050;-76
2021/10/22 00:17:26;;;;;;;51.38;36.47;;;333.10;2329.60;;;;;;5094599;28;20527;-77
2021/10/22 00:19:52;;;;;;;45.17;34.47;;;332.90;2329.60;;;;;;5094709;28;20035;-74
2021/10/22 00:22:18;;;;;;;41.40;31.65;;;308.10;2304.00;;;;;;5095936;28;20403;-73
2021/10/22 00:24:43;;;;;;;45.50;34.75;;;308.10;2304.00;;;;;;5095450;28;20035;-75
2021/10/22 00:27:10;;;;;;;49.95;36.40;;;332.90;2329.60;;;;;;5094457;28;20028;-75
2021/10/22 00:29:36;;;;;;;49.55;35.40;;;333.00;2329.60;;;;;;5095532;28;20371;-74
2021/10/22 00:32:03;;;;;;;43.97;34.33;;;332.90;2329.60;;;;;;5094050;28;20035;-74
2021/10/22 00:34:30;;;;;;;46.90;34.40;;;333.00;2329.60;;;;;;5093946;28;20048;-74
2021/10/22 00:36:58;;;;;;;54.53;38.97;;;333.00;2329.60;;;;;;5094183;28;20494;-75
2021/10/22 00:39:24;;;;;;;50.25;38.60;;;308.00;2304.00;;;;;;5095591;28;20034;-74
2021/10/22 00:41:50;;;;;;;58.78;42.72;;;308.10;2304.00;;;;;;5094301;28;20379;-75
2021/10/22 00:44:16;;;;;;;50.20;38.00;;;308.00;2304.00;;;;;;5093881;28;20467;-76
2021/10/22 00:46:42;;;;;;;51.40;38.55;;;308.10;2304.00;;;;;;5095472;28;20035;-74
2021/10/22 00:49:10;;;;;;;52.97;39.10;;;308.10;2304.00;;;;;;5094090;28;20032;-76
2021/10/22 00:51:37;;;;;;;54.45;37.45;;;308.00;2304.00;;;;;;5093738;28;20031;-75
2021/10/22 00:54:10;;;;;;;51.35;36.95;;;308.00;2304.00;;;;;;5095313;28;20521;-77
2021/10/22 00:56:36;;;;;;;48.45;34.80;;;308.00;2304.00;;;;;;5093956;28;20028;-75
2021/10/22 00:59:04;;;;;;;49.08;36.85;;;308.10;2304.00;;;;;;5094902;28;20029;-74
2021/10/22 01:01:30;;;;;;;51.63;39.58;;;308.10;2304.00;;;;;;5093842;28;20460;-75
2021/10/22 01:03:56;;;;;;;53.35;36.05;;;307.90;2304.00;;;;;;5093673;28;20028;-76
2021/10/22 01:06:22;;;;;;;55.08;41.55;;;308.00;2304.00;;;;;;5093516;28;20032;-75
2021/10/22 01:08:49;;;;;;;53.35;39.92;;;307.70;2304.00;;;;;;5093738;28;20032;-74
2021/10/22 01:11:15;;;;;;;53.50;40.25;;;307.70;2304.00;;;;;;5095144;28;20556;-75
2021/10/22 01:13:42;;;;;;;53.30;38.45;;;307.70;2304.00;;;;;;5094334;28;20028;-74
2021/10/22 01:16:07;;;;;;;53.22;35.63;;;307.60;2304.00;;;;;;5093563;28;20028;-75
2021/10/22 01:18:33;;;;;;;51.47;39.45;;;307.70;2304.00;;;;;;5093519;28;20094;-77
2021/10/22 01:21:00;;;;;;;46.50;36.35;;;307.80;2304.00;;;;;;5094503;28;20344;-75
2021/10/22 01:23:27;;;;;;;55.17;40.78;;;307.80;2304.00;;;;;;5093359;28;20031;-76
2021/10/22 01:25:53;;;;;;;48.97;35.92;;;307.80;2304.00;;;;;;5094372;28;20031;-75
2021/10/22 01:28:20;;;;;;;44.75;32.30;;;307.80;2304.00;;;;;;5094698;28;20024;-76
2021/10/22 01:30:48;;;;;;;46.67;33.58;;;307.80;2304.00;;;;;;5092831;28;20024;-75
2021/10/22 01:33:18;;;;;;;44.30;33.88;;;307.80;2304.00;;;;;;5092977;28;20064;-75
2021/10/22 01:35:49;;;;;;;44.38;31.48;;;307.80;2304.00;;;;;;5094478;28;20047;-75
2021/10/22 01:38:17;;;;;;;43.60;32.00;;;307.80;2304.00;;;;;;5094443;28;20491;-75
2021/10/22 01:40:44;;;;;;;47.80;34.90;;;307.70;2304.00;;;;;;5092972;28;20035;-75
2021/10/22 01:43:10;;;;;;;54.53;37.47;;;307.70;2304.00;;;;;;5093092;28;20098;-76
2021/10/22 01:45:36;;;;;;;51.47;41.33;;;307.40;2304.00;;;;;;5093989;28;20032;-75
2021/10/22 01:48:03;;;;;;;55.50;40.53;;;307.30;2304.00;;;;;;5092724;28;20035;-74
2021/10/22 01:50:29;;;;;;;59.40;40.17;;;307.40;2304.00;;;;;;5094211;28;20035;-75
2021/10/22 01:52:55;;;;;;;50.97;38.00;;;307.30;2304.00;;;;;;5093856;28;20035;-76
2021/10/22 01:55:21;;;;;;;49.60;34.65;;;307.30;2304.00;;;;;;5092608;28;20032;-75
2021/10/22 01:57:47;;;;;;;51.65;38.67;;;307.40;2304.00;;;;;;5092851;28;20104;-75
2021/10/22 02:00:13;;;;;;;55.58;42.53;;;282.50;2278.40;;;;;;5094087;28;20054;-75
2021/10/22 02:02:39;;;;;;;69.40;48.45;;;282.40;2278.40;;;;;;5093779;28;20028;-76
2021/10/22 02:05:06;;;;;;;68.82;49.58;;;282.30;2278.40;;;;;;5092704;28;20475;-76
2021/10/22 02:07:31;;;;;;;74.25;51.78;;;282.50;2278.40;;;;;;5092502;28;20132;-75
2021/10/22 02:09:57;;;;;;;65.55;45.50;;;282.50;2278.40;;;;;;5092391;28;20194;-74
2021/10/22 02:12:23;;;;;;;60.90;43.30;;;282.40;2278.40;;;;;;5092688;28;20031;-75
2021/10/22 02:14:49;;;;;;;51.95;36.97;;;282.30;2278.40;;;;;;5093542;28;20682;-75
2021/10/22 02:17:15;;;;;;;42.47;30.83;;;282.50;2278.40;;;;;;5092293;28;20397;-74
2021/10/22 02:19:41;;;;;;;44.70;33.90;;;282.30;2278.40;;;;;;5093603;28;20078;-75
2021/10/22 02:22:06;;;;;;;45.35;34.25;;;282.30;2278.40;;;;;;5092321;28;20020;-76
2021/10/22 02:24:32;;;;;;;50.00;35.92;;;282.30;2278.40;;;;;;5092407;28;20460;-75
2021/10/22 02:26:58;;;;;;;60.10;34.95;;;282.30;2278.40;;;;;;5093812;28;20418;-75
2021/10/22 02:29:24;;;;;;;46.05;29.60;;;282.30;2278.40;;;;;;5092129;28;20436;-74
2021/10/22 02:31:50;;;;;;;42.92;29.48;;;282.10;2278.40;;;;;;5092424;28;20028;-76
2021/10/22 02:34:16;;;;;;;47.63;29.50;;;282.30;2278.40;;;;;;5093228;28;20391;-75
2021/10/22 02:36:42;;;;;;;48.15;32.05;;;282.50;2278.40;;;;;;5092167;28;20042;-75
2021/10/22 02:39:08;;;;;;;49.95;32.67;;;282.50;2278.40;;;;;;5092388;28;20464;-74
2021/10/22 02:41:34;;;;;;;86.88;49.20;;;282.50;2278.40;;;;;;5092540;28;20035;-75
2021/10/22 02:44:00;;;;;;;115.45;61.42;;;282.20;2278.40;;;;;;5096272;28;20475;-75
2021/10/22 02:46:25;;;;;;;102.78;55.97;;;282.10;2278.40;;;;;;5096455;28;20032;-74
2021/10/22 02:48:51;;;;;;;84.15;47.17;;;282.20;2278.40;;;;;;5096442;28;20028;-74
2021/10/22 02:51:17;;;;;;;57.55;36.28;;;282.20;2278.40;;;;;;5096213;28;20112;-74
2021/10/22 02:53:43;;;;;;;58.88;37.10;;;282.30;2278.40;;;;;;5096387;28;20081;-75
2021/10/22 02:56:09;;;;;;;103.93;57.30;;;281.90;2278.40;;;;;;5096440;28;20111;-75
2021/10/22 02:58:35;;;;;;;65.35;41.08;;;281.70;2278.40;;;;;;5097536;28;20370;-75
2021/10/22 03:01:01;;;;;;;53.92;35.38;;;281.90;2278.40;;;;;;5096234;28;20028;-74
2021/10/22 03:03:26;;;;;;;48.42;33.25;;;282.00;2278.40;;;;;;5097347;28;20036;-76
2021/10/22 03:05:52;;;;;;;40.03;30.27;;;282.00;2278.40;;;;;;5095904;28;20042;-75
2021/10/22 03:08:18;;;;;;;33.78;25.33;;;282.00;2278.40;;;;;;5096161;28;20131;-75
2021/10/22 03:10:44;;;;;;;28.52;20.08;;;282.00;2278.40;;;;;;5096032;28;20539;-75
2021/10/22 03:13:10;;;;;;;23.25;17.20;;;281.80;2278.40;;;;;;5104890;28;20042;-73
2021/10/22 03:15:35;;;;;;;22.60;17.70;;;281.60;2278.40;;;;;;5110944;28;20028;-74
2021/10/22 03:18:01;;;;;;;23.73;19.08;;;281.60;2278.40;;;;;;5108502;28;20024;-75
2021/10/22 03:20:27;;;;;;;34.05;18.95;;;281.60;2278.40;;;;;;5105384;28;20052;-73
2021/10/22 03:22:53;;;;;;;25.08;19.55;;;256.90;2252.80;;;;;;5106222;28;20024;-74
2021/10/22 03:25:19;;;;;;;28.85;18.92;;;256.60;2252.80;;;;;;5107137;28;20081;-74
2021/10/22 03:27:47;;;;;;;24.63;18.65;;;256.70;2252.80;;;;;;5106940;28;20085;-72
2021/10/22 03:30:13;;;;;;;24.48;17.05;;;256.90;2252.80;;;;;;5107607;28;20028;-75
2021/10/22 03:32:39;;;;;;;30.83;21.85;;;256.90;2252.80;;;;;;5106171;28;20344;-73
2021/10/22 03:35:05;;;;;;;30.55;21.95;;;256.90;2252.80;;;;;;5106524;28;20052;-73
2021/10/22 03:37:32;;;;;;;31.50;23.67;;;256.90;2252.80;;;;;;5100564;28;20024;-76
2021/10/22 03:39:58;;;;;;;31.95;25.98;;;256.90;2252.80;;;;;;5096588;28;20035;-75
2021/10/22 03:42:24;;;;;;;50.20;40.25;;;256.90;2252.80;;;;;;5096752;28;20032;-75
2021/10/22 03:44:49;;;;;;;51.38;32.70;;;256.80;2252.80;;;;;;5095309;28;20399;-74
2021/10/22 03:47:15;;;;;;;48.13;33.13;;;256.50;2252.80;;;;;;5096438;28;20059;-74
2021/10/22 03:49:42;;;;;;;45.05;31.40;;;256.70;2252.80;;;;;;5096743;28;20122;-74
2021/10/22 03:52:08;;;;;;;48.70;33.70;;;256.70;2252.80;;;;;;5095159;28;20391;-75
2021/10/22 03:54:33;;;;;;;46.90;33.67;;;256.80;2252.80;;;;;;5095901;28;20032;-74
2021/10/22 03:56:59;;;;;;;67.93;50.58;;;256.80;2252.80;;;;;;5096468;28;20066;-75
2021/10/22 03:59:25;;;;;;;44.28;34.60;;;256.70;2252.80;;;;;;5095042;28;20492;-74
2021/10/22 04:01:51;;;;;;;42.35;33.33;;;256.70;2252.80;;;;;;5094765;28;20028;-74
2021/10/22 04:04:17;;;;;;;45.00;35.15;;;256.80;2252.80;;;;;;5095292;28;20051;-75
2021/10/22 04:06:43;;;;;;;44.10;35.78;;;256.90;2252.80;;;;;;5095362;28;20028;-75
2021/10/22 04:09:10;;;;;;;43.00;33.50;;;256.90;2252.80;;;;;;5095870;28;20378;-75
2021/10/22 04:11:36;;;;;;;45.22;34.35;;;281.60;2278.40;;;;;;5096137;28;20030;-75
2021/10/22 04:14:03;;;;;;;52.05;41.53;;;256.90;2252.80;;;;;;5096065;28;20032;-75
2021/10/22 04:16:29;;;;;;;54.25;48.38;;;256.90;2252.80;;;;;;5094737;28;20028;-74
2021/10/22 04:18:55;;;;;;;55.40;44.30;;;256.90;2252.80;;;;;;5094727;28;20038;-74
2021/10/22 04:21:21;;;;;;;49.35;42.00;;;281.60;2278.40;;;;;;5094347;28;20036;-74
2021/10/22 04:23:47;;;;;;;56.13;41.05;;;281.70;2278.40;;;;;;5094568;28;20028;-75
2021/10/22 04:26:13;;;;;;;56.88;42.72;;;256.90;2252.80;;;;;;5094790;28;20036;-74
2021/10/22 04:28:39;;;;;;;67.40;51.17;;;281.60;2278.40;;;;;;5095536;28;20043;-76
2021/10/22 04:31:05;;;;;;;64.40;47.47;;;256.90;2252.80;;;;;;5094615;28;20386;-74
2021/10/22 04:33:31;;;;;;;60.08;47.60;;;256.90;2252.80;;;;;;5096023;28;20107;-76
2021/10/22 04:35:57;;;;;;;67.93;53.47;;;256.70;2252.80;;;;;;5093656;28;20047;-74
2021/10/22 04:41:07;;;;;;;52.47;42.95;;;256.70;2252.80;;;;;;5095680;28;20035;-74
2021/10/22 04:43:33;;;;;;;50.28;42.88;;;256.30;2252.80;;;;;;5093879;28;20024;-76
2021/10/22 04:45:59;;;;;;;49.20;37.42;;;256.30;2252.80;;;;;;5095426;28;20032;-74
2021/10/22 04:48:24;;;;;;;45.90;34.13;;;256.00;2252.80;;;;;;5094229;28;20467;-75
2021/10/22 04:50:51;;;;;;;52.63;34.05;;;256.10;2252.80;;;;;;5093841;28;20078;-76
2021/10/22 04:53:19;;;;;;;43.80;30.38;;;256.10;2252.80;;;;;;5093758;28;20020;-74
2021/10/22 04:55:45;;;;;;;148.80;97.28;;;256.00;2252.80;;;;;;5093926;28;20499;-73
2021/10/22 04:58:11;;;;;;;86.70;53.92;;;231.10;2252.80;;;;;;5093669;28;20028;-74
2021/10/22 05:00:37;;;;;;;63.88;39.85;;;231.10;2252.80;;;;;;5093656;28;20115;-76
2021/10/22 05:03:03;;;;;;;67.40;40.40;;;256.20;2252.80;;;;;;5093615;28;20024;-74
2021/10/22 05:05:29;;;;;;;71.18;39.28;;;231.20;2252.80;;;;;;5099263;28;20038;-73
2021/10/22 05:07:55;;;;;;;60.17;34.50;;;231.00;2252.80;;;;;;5101574;28;20032;-73
2021/10/22 05:10:21;;;;;;;57.33;35.88;;;231.10;2252.80;;;;;;5095472;28;20055;-75
2021/10/22 05:12:47;;;;;;;58.70;37.17;;;231.20;2252.80;;;;;;5093807;28;20082;-73
2021/10/22 05:15:13;;;;;;;62.60;37.53;;;231.10;2252.80;;;;;;5094935;28;20115;-73
2021/10/22 05:17:39;;;;;;;107.82;75.82;;;231.30;2252.80;;;;;;5093431;28;20063;-75
2021/10/22 05:20:08;;;;;;;109.63;77.63;;;231.20;2252.80;;;;;;5093516;28;20024;-74
2021/10/22 05:22:38;;;;;;;125.03;86.40;;;231.30;2252.80;;;;;;5093450;28;20028;-75
2021/10/22 05:25:05;;;;;;;151.68;103.75;;;231.00;2252.80;;;;;;5093190;28;20032;-77
2021/10/22 05:27:30;;;;;;;170.20;118.43;;;231.00;2252.80;;;;;;5093366;28;20028;-74
2021/10/22 05:29:56;;;;;;;110.03;79.78;;;231.10;2252.80;;;;;;5094642;28;20440;-77
2021/10/22 05:32:22;;;;;;;110.55;76.53;;;231.10;2252.80;;;;;;5093090;28;20024;-74
2021/10/22 05:34:48;;;;;;;128.32;86.53;;;231.10;2252.80;;;;;;5092831;28;20480;-75
2021/10/22 05:37:14;;;;;;;88.88;60.63;;;231.20;2252.80;;;;;;5093136;28;20028;-75
2021/10/22 05:39:40;;;;;;;127.65;71.35;;;231.20;2252.80;;;;;;5094192;28;20073;-74
2021/10/22 05:42:06;;;;;;;92.22;58.38;;;231.20;2252.80;;;;;;5093179;28;20420;-74
2021/10/22 05:44:32;;;;;;;91.97;60.80;;;231.10;2252.80;;;;;;5093045;28;20090;-74
2021/10/22 05:46:58;;;;;;;92.60;61.15;;;231.30;2252.80;;;;;;5092856;28;20028;-76
2021/10/22 05:49:24;;;;;;;99.00;61.47;;;256.00;2252.80;;;;;;5093109;28;20028;-76
2021/10/22 05:51:52;;;;;;;75.03;53.63;;;256.10;2252.80;;;;;;5093115;28;20456;-78
2021/10/22 05:54:18;;;;;;;81.20;58.25;;;256.10;2252.80;;;;;;5093882;28;20407;-76
2021/10/22 05:56:44;;;;;;;77.40;49.33;;;256.20;2252.80;;;;;;5092986;28;20024;-75
2021/10/22 05:59:10;;;;;;;82.97;52.20;;;256.30;2252.80;;;;;;5092619;28;20487;-75
2021/10/22 06:01:36;;;;;;;67.07;49.70;;;256.10;2252.80;;;;;;5092876;28;20031;-76
2021/10/22 06:04:02;;;;;;;85.78;55.38;;;256.10;2252.80;;;;;;5092759;28;20028;-75
2021/10/22 06:06:28;;;;;;;81.20;55.72;;;256.00;2252.80;;;;;;5093752;28;20044;-75
2021/10/22 06:08:55;;;;;;;88.45;57.30;;;256.20;2252.80;;;;;;5093999;28;20059;-76
2021/10/22 06:11:21;;;;;;;78.70;53.35;;;256.30;2252.80;;;;;;5092425;28;20027;-75
2021/10/22 06:13:47;;;;;;;81.57;56.88;;;256.50;2252.80;;;;;;5093638;28;20028;-77
2021/10/22 06:16:14;;;;;;;94.22;72.18;;;256.70;2252.80;;;;;;5092678;28;20119;-75
2021/10/22 06:18:51;;;;;;;94.53;64.53;;;256.50;2252.80;;;;;;5092745;28;20493;-75
2021/10/22 06:21:31;;;;;;;78.00;58.30;;;256.60;2252.80;;;;;;5092386;28;20130;-75
2021/10/22 06:24:02;;;;;;;98.70;65.45;;;256.70;2252.80;;;;;;5092695;28;20472;-75
2021/10/22 06:26:35;;;;;;;110.72;77.10;;;256.80;2252.80;;;;;;5093845;28;20107;-75
2021/10/22 06:29:03;;;;;;;118.45;83.82;;;256.80;2252.80;;;;;;5092438;28;20024;-75
2021/10/22 06:31:29;;;;;;;124.53;95.03;;;256.80;2252.80;;;;;;5092640;28;20395;-76
2021/10/22 06:33:55;;;;;;;133.80;104.53;;;256.90;2252.80;;;;;;5093132;28;20404;-75
2021/10/22 06:36:21;;;;;;;123.38;85.00;;;281.60;2278.40;;;;;;5092497;28;20373;-75
2021/10/22 06:38:47;;;;;;;111.50;78.68;;;281.70;2278.40;;;;;;5092433;28;20031;-75
2021/10/22 06:41:13;;;;;;;117.72;84.78;;;281.70;2278.40;;;;;;5092174;28;20031;-75
2021/10/22 06:43:40;;;;;;;109.30;82.97;;;282.00;2278.40;;;;;;5093806;28;20067;-76
2021/10/22 06:46:08;;;;;;;98.38;73.15;;;282.10;2278.40;;;;;;5093467;28;20465;-76
2021/10/22 06:48:35;;;;;;;93.82;69.50;;;282.20;2278.40;;;;;;5092054;28;20023;-75
2021/10/22 06:51:01;;;;;;;91.93;67.65;;;282.30;2278.40;;;;;;5093672;28;20024;-75
2021/10/22 06:53:27;;;;;;;93.10;70.00;;;282.40;2278.40;;;;;;5092368;28;20115;-75
2021/10/22 06:55:53;;;;;;;112.00;78.40;;;282.50;2278.40;;;;;;5092140;28;20085;-76
2021/10/22 06:58:19;;;;;;;131.35;94.30;;;307.20;2304.00;;;;;;5092333;28;20024;-76
2021/10/22 07:00:49;;;;;;;145.32;106.60;;;307.20;2304.00;;;;;;5092282;28;20468;-75
2021/10/22 07:03:19;;;;;;;140.50;100.75;;;307.20;2304.00;;;;;;5091846;28;20118;-77
2021/10/22 07:08:12;;;;;;;167.75;119.80;;;307.30;2304.00;;;;;;5093124;28;20467;-75
2021/10/22 07:10:39;;;;;;;172.07;121.70;;;307.40;2304.00;;;;;;5093032;28;20024;-75
2021/10/22 07:13:05;;;;;;;178.20;123.20;;;307.50;2304.00;;;;;;5092120;28;20032;-76
2021/10/22 07:15:32;;;;;;;168.52;124.80;;;307.60;2304.00;;;;;;5092192;28;20032;-77
2021/10/22 07:18:02;;;;;;;161.05;118.90;;;307.60;2304.00;;;;;;5091807;28;20101;-77
2021/10/22 07:20:29;;;;;;;154.98;114.75;;;307.50;2304.00;;;;;;5092203;28;20024;-75
2021/10/22 07:23:02;;;;;;;154.93;118.93;;;307.60;2304.00;;;;;;5091785;28;20113;-76
2021/10/22 07:25:28;;;;;;;157.00;116.75;;;307.60;2304.00;;;;;;5093293;28;20034;-76
2021/10/22 07:27:55;;;;;;;166.90;122.53;;;307.50;2304.00;;;;;;5093013;28;20697;-76
2021/10/22 07:30:21;;;;;;;148.70;114.15;;;307.50;2304.00;;;;;;5096545;28;20052;-76
2021/10/22 07:32:47;;;;;;;120.32;93.03;;;307.50;2304.00;;;;;;5095707;28;20059;-75
2021/10/22 07:35:15;;;;;;;124.95;97.43;;;307.60;2304.00;;;;;;5096818;28;20044;-77
2021/10/22 07:37:41;;;;;;;128.85;98.88;;;307.60;2304.00;;;;;;5096544;28;20031;-76
2021/10/22 07:40:12;;;;;;;135.13;105.82;;;307.60;2304.00;;;;;;5096474;28;20020;-75
2021/10/22 07:42:38;;;;;;;134.32;102.93;;;307.70;2304.00;;;;;;5095549;28;20028;-76
2021/10/22 07:45:06;;;;;;;88.95;70.20;;;307.80;2304.00;;;;;;5095129;28;20464;-76
2021/10/22 07:47:33;;;;;;;69.63;52.95;;;307.90;2304.00;;;;;;5096748;28;20029;-77
2021/10/22 07:50:00;;;;;;;75.20;57.03;;;307.90;2304.00;;;;;;5096311;28;20070;-75
2021/10/22 07:52:29;;;;;;;81.65;56.25;;;308.00;2304.00;;;;;;5096120;28;20077;-75
2021/10/22 07:54:59;;;;;;;84.88;55.95;;;308.10;2304.00;;;;;;5094944;28;20093;-76
2021/10/22 07:57:25;;;;;;;74.38;56.70;;;332.90;2329.60;;;;;;5095161;28;20080;-75
2021/10/22 07:59:51;;;;;;;83.47;64.50;;;332.90;2329.60;;;;;;5094732;28;20024;-76
2021/10/22 08:02:18;;;;;;;96.68;67.68;;;333.00;2329.60;;;;;;5095044;28;20034;-76
2021/10/22 08:04:46;;;;;;;75.95;58.58;;;333.40;2329.60;;;;;;5094964;28;20031;-76
2021/10/22 08:07:14;;;;;;;66.93;49.17;;;333.40;2329.60;;;;;;5094644;28;20452;-76
2021/10/22 08:09:45;;;;;;;76.03;54.30;;;333.40;2329.60;;;;;;5094907;28;20031;-75
2021/10/22 08:12:12;;;;;;;69.97;53.38;;;333.60;2329.60;;;;;;5094598;28;20024;-75
2021/10/22 08:14:39;;;;;;;70.60;52.55;;;333.70;2329.60;;;;;;5094886;28;20077;-75
2021/10/22 08:17:05;;;;;;;55.42;44.45;;;358.40;2329.60;;;;;;5094909;28;20036;-76
2021/10/22 08:19:31;;;;;;;51.60;39.38;;;358.40;2329.60;;;;;;5095492;28;20399;-76
2021/10/22 08:24:33;;;;;;;60.75;42.17;;;358.40;2329.60;;;;;;5095913;28;20070;-75
2021/10/22 08:27:00;;;;;;;73.68;49.58;;;358.40;2329.60;;;;;;5094380;28;20024;-75
2021/10/22 08:29:27;;;;;;;69.03;49.40;;;358.50;2329.60;;;;;;5094553;28;20451;-76
2021/10/22 08:31:53;;;;;;;55.25;41.67;;;358.50;2329.60;;;;;;5095809;28;20407;-74
2021/10/22 08:34:19;;;;;;;52.75;39.20;;;358.70;2329.60;;;;;;5093984;28;20396;-75
2021/10/22 08:36:46;;;;;;;55.42;41.78;;;358.60;2329.60;;;;;;5094449;28;20035;-74
2021/10/22 08:39:13;;;;;;;62.50;44.65;;;358.70;2329.60;;;;;;5094609;28;20056;-76
2021/10/22 08:41:40;;;;;;;60.28;42.13;;;358.70;2329.60;;;;;;5093825;28;20035;-75
2021/10/22 08:44:09;;;;;;;49.92;39.75;;;358.70;2329.60;;;;;;5094203;28;20035;-75
2021/10/22 08:46:36;;;;;;;58.97;42.33;;;358.70;2329.60;;;;;;5104373;28;20076;-75
2021/10/22 08:49:02;;;;;;;59.38;43.70;;;358.80;2329.60;;;;;;5100215;28;20375;-76
2021/10/22 08:51:28;;;;;;;62.53;48.03;;;358.80;2329.60;;;;;;5093814;28;20024;-75
2021/10/22 08:53:55;;;;;;;72.88;51.47;;;358.90;2329.60;;;;;;5095030;28;20096;-75
2021/10/22 08:56:22;;;;;;;67.57;46.28;;;358.90;2329.60;;;;;;5093935;28;20052;-76
2021/10/22 08:58:47;;;;;;;76.25;58.47;;;359.00;2329.60;;;;;;5095033;28;20024;-77
2021/10/22 09:01:16;;;;;;;72.70;55.25;;;359.10;2329.60;;;;;;5093630;28;20030;-77
2021/10/22 09:03:42;;;;;;;71.03;53.88;;;359.10;2329.60;;;;;;5095404;28;20040;-76
2021/10/22 09:06:17;;;;;;;71.53;55.58;;;359.20;2329.60;;;;;;5094068;28;20028;-77
2021/10/22 09:08:45;;;;;;;87.53;64.40;;;359.30;2329.60;;;;;;5093585;28;20361;-75
2021/10/22 09:11:23;;;;;;;71.60;56.85;;;384.00;2329.60;;;;;;5093910;28;20047;-76
2021/10/22 09:14:13;;;;;;;66.07;47.70;;;384.10;2329.60;;;;;;5093678;28;20030;-75
2021/10/22 09:16:57;;;;;;;73.60;49.63;;;384.10;2329.60;;;;;;5093411;28;20421;-73
2021/10/22 09:19:36;;;;;;;73.18;54.97;;;384.20;2329.60;;;;;;5093731;28;20047;-75
2021/10/22 09:22:32;;;;;;;61.22;51.78;;;384.20;2329.60;;;;;;5094541;28;20372;-74
2021/10/22 09:25:01;;;;;;;68.45;60.83;;;384.30;2329.60;;;;;;5093636;28;20421;-76
2021/10/22 09:27:50;;;;;;;64.45;47.67;;;384.30;2329.60;;;;;;5093433;28;20032;-74
2021/10/22 09:30:37;;;;;;;48.13;36.47;;;384.40;2329.60;;;;;;5093169;28;20456;-76
2021/10/22 09:33:11;;;;;;;48.75;37.70;;;384.60;2329.60;;;;;;5093473;28;20376;-73
2021/10/22 09:35:43;;;;;;;47.85;38.47;;;384.70;2329.60;;;;;;5093048;28;20073;-72
2021/10/22 09:38:17;;;;;;;41.55;33.83;;;384.90;2329.60;;;;;;5094301;28;20024;-73
2021/10/22 09:41:02;;;;;;;43.58;34.78;;;384.90;2329.60;;;;;;5093191;28;20028;-74
2021/10/22 09:43:34;;;;;;;36.97;30.58;;;409.70;2355.20;;;;;;5094210;28;20024;-73
2021/10/22 09:46:13;;;;;;;31.00;26.17;;;409.70;2355.20;;;;;;5094442;28;20055;-75
2021/10/22 09:48:41;;;;;;;34.00;24.85;;;409.80;2355.20;;;;;;5093106;28;20043;-74
2021/10/22 09:51:34;;;;;;;30.08;23.45;;;410.00;2355.20;;;;;;5092403;28;20073;-73
2021/10/22 09:54:13;;;;;;;31.10;22.42;;;410.00;2355.20;;;;;;5094010;28;20528;-73
2021/10/22 09:56:42;;;;;;;28.00;21.63;;;410.10;2355.20;;;;;;5093044;28;20059;-76
2021/10/22 09:59:10;;;;;;;20.48;14.90;;;410.20;2355.20;;;;;;5092613;28;20030;-75
2021/10/22 10:01:43;;;;;;;24.55;17.90;;;410.30;2355.20;;;;;;5093343;28;20030;-75
2021/10/22 10:04:15;;;;;;;36.80;32.85;;;410.50;2355.20;;;;;;5093230;28;20031;-74
2021/10/22 10:06:43;;;;;;;26.00;19.40;;;435.30;2355.20;;;;;;5092698;28;20061;-75
2021/10/22 10:09:11;;;;;;;28.75;20.63;;;435.40;2355.20;;;;;;5092822;28;20391;-77
2021/10/22 10:11:39;;;;;;;25.90;19.88;;;435.60;2355.20;;;;;;5093738;28;20069;-75
2021/10/22 10:14:05;;;;;;;32.97;19.77;;;435.70;2355.20;;;;;;5092671;28;20028;-77
2021/10/22 10:16:33;;;;;;;32.50;21.80;;;435.80;2355.20;;;;;;5094057;28;20026;-74
2021/10/22 10:19:09;;;;;;;59.47;39.45;;;435.90;2355.20;;;;;;5093655;28;20053;-74
2021/10/22 10:21:46;;;;;;;66.93;34.60;;;435.90;2355.20;;;;;;5092912;28;20039;-75
2021/10/22 10:24:14;;;;;;;74.28;52.97;;;435.90;2355.20;;;;;;5093814;28;20028;-76
2021/10/22 10:26:41;;;;;;;34.42;23.55;;;435.90;2355.20;;;;;;5092296;28;20472;-75
2021/10/22 10:29:26;;;;;;;33.22;23.33;;;435.80;2355.20;;;;;;5092393;28;20025;-74
2021/10/22 10:32:02;;;;;;;42.15;31.48;;;435.80;2355.20;;;;;;5093295;28;20030;-76
2021/10/22 10:34:31;;;;;;;34.05;26.45;;;435.80;2355.20;;;;;;5092311;28;20483;-75
2021/10/22 10:37:07;;;;;;;35.53;25.60;;;435.90;2355.20;;;;;;5093799;28;20529;-74
2021/10/22 10:39:39;;;;;;;35.20;23.77;;;435.90;2355.20;;;;;;5093549;28;20475;-77
2021/10/22 10:42:29;;;;;;;35.00;24.60;;;436.00;2355.20;;;;;;5092476;28;20024;-77
2021/10/22 10:44:57;;;;;;;28.90;22.17;;;436.10;2355.20;;;;;;5093631;28;20464;-75
2021/10/22 10:47:45;;;;;;;26.73;21.27;;;436.10;2355.20;;;;;;5092092;28;20028;-78
2021/10/22 10:50:12;;;;;;;24.75;20.80;;;436.10;2355.20;;;;;;5092360;28;20054;-78
2021/10/22 10:52:38;;;;;;;38.47;26.33;;;460.80;2380.80;;;;;;5092340;28;20024;-77
2021/10/22 10:55:32;;;;;;;32.53;24.67;;;460.90;2380.80;;;;;;5091980;28;20031;-76
2021/10/22 10:58:20;;;;;;;25.08;19.25;;;461.00;2380.80;;;;;;5093519;28;20082;-76
2021/10/22 11:00:57;;;;;;;23.40;18.50;;;461.30;2380.80;;;;;;5092595;28;20434;-76
2021/10/22 11:03:41;;;;;;;21.05;16.85;;;461.50;2380.80;;;;;;5094053;28;20050;-76
2021/10/22 11:06:07;;;;;;;25.83;15.65;;;461.60;2380.80;;;;;;5097222;28;20415;-75
2021/10/22 11:08:33;;;;;;;20.95;14.60;;;486.40;2380.80;;;;;;5095839;28;20043;-77
2021/10/22 11:13:46;;;;;;;26.55;16.83;;;486.60;2380.80;;;;;;5097499;28;20055;-77
2021/10/22 11:16:44;;;;;;;23.15;15.73;;;486.90;2380.80;;;;;;5096770;28;20034;-76
2021/10/22 11:19:08;;;;;;;23.75;15.63;;;487.10;2380.80;;;;;;5096597;28;20032;-77
2021/10/22 11:21:37;;;;;;;21.05;16.88;;;487.10;2380.80;;;;;;5097168;28;20028;-77
2021/10/22 11:24:05;;;;;;;21.80;16.00;;;487.30;2380.80;;;;;;5095730;28;20032;-75
2021/10/22 11:26:32;;;;;;;24.40;14.80;;;512.30;2380.80;;;;;;5095729;28;20075;-76
2021/10/22 11:29:15;;;;;;;15.85;12.25;;;512.60;2380.80;;;;;;5095182;28;20032;-76
2021/10/22 11:31:50;;;;;;;20.27;15.40;;;512.20;2380.80;;;;;;5097065;28;20047;-75
2021/10/22 11:34:21;;;;;;;23.17;17.70;;;512.60;2380.80;;;;;;5096580;28;20073;-76
2021/10/22 11:37:06;;;;;;;19.10;15.93;;;537.60;2406.40;;;;;;5096716;28;20073;-76
2021/10/22 11:39:41;;;;;;;31.75;24.42;;;538.00;2406.40;;;;;;5095377;28;20417;-74
2021/10/22 11:42:31;;;;;;;27.52;21.58;;;538.30;2406.40;;;;;;5096353;28;20024;-75
2021/10/22 11:45:08;;;;;;;18.65;14.00;;;538.50;2406.40;;;;;;5087459;28;20075;-75
2021/10/22 11:47:36;;;;;;;31.75;15.73;;;563.40;2432.00;;;;;;5095395;28;20055;-75
2021/10/22 11:50:34;;;;;;;24.65;17.52;;;563.30;2432.00;;;;;;5094978;28;20032;-74
2021/10/22 11:53:14;;;;;;;24.13;16.55;;;563.50;2432.00;;;;;;5087505;28;20033;-74
2021/10/22 11:55:42;;;;;;;20.15;14.05;;;538.50;2406.40;;;;;;5095289;28;20020;-75
2021/10/22 11:58:10;;;;;;;24.08;15.32;;;538.20;2406.40;;;;;;5094802;28;20367;-74
2021/10/22 12:00:55;;;;;;;22.25;14.07;;;537.80;2406.40;;;;;;5094815;28;20062;-76
2021/10/22 12:03:41;;;;;;;21.05;13.52;;;512.80;2380.80;;;;;;5094790;28;20464;-75
2021/10/22 12:06:16;;;;;;;17.40;12.25;;;512.50;2380.80;;;;;;5090793;28;20035;-75
2021/10/22 12:08:42;;;;;;;27.80;18.38;;;512.20;2380.80;;;;;;5073742;28;20053;-75
2021/10/22 12:11:08;;;;;;;25.23;18.00;;;512.20;2380.80;;;;;;5074408;28;20407;-76
2021/10/22 12:13:38;;;;;;;26.27;18.05;;;512.20;2380.80;;;;;;5072831;28;20020;-77